sensor_id;sensor_type;location;lat;lon;timestamp;P1;durP1;ratioP1;P2;durP2;ratioP2
23060;SDS011;11698;47.690;9.132;2023-04-25T00:00:25;2.95;;;1.90;;
23060;SDS011;11698;47.690;9.132;2023-04-25T00:02:51;3.67;;;1.80;;
23060;SDS011;11698;47.690;9.132;2023-04-25T00:05:17;3.72;;;1.80;;
23060;SDS011;11698;47.690;9.132;2023-04-25T00:07:44;3.15;;;1.80;;
23060;SDS011;11698;47.690;9.132;2023-04-25T00:10:10;3.53;;;1.73;;
23060;SDS011;11698;47.690;9.132;2023-04-25T00:12:37;2.13;;;1.80;;
23060;SDS011;11698;47.690;9.132;2023-04-25T00:15:04;3.47;;;1.80;;
23060;SDS011;11698;47.690;9.132;2023-04-25T00:17:30;2.22;;;1.80;;
23060;SDS011;11698;47.690;9.132;2023-04-25T00:19:56;4.20;;;1.67;;
23060;SDS011;11698;47.690;9.132;2023-04-25T00:22:23;3.72;;;1.83;;
23060;SDS011;11698;47.690;9.132;2023-04-25T00:24:49;2.97;;;1.40;;
23060;SDS011;11698;47.690;9.132;2023-04-25T00:27:15;4.50;;;1.75;;
23060;SDS011;11698;47.690;9.132;2023-04-25T00:29:41;1.95;;;1.58;;
23060;SDS011;11698;47.690;9.132;2023-04-25T00:32:07;3.47;;;1.70;;
23060;SDS011;11698;47.690;9.132;2023-04-25T00:34:33;3.47;;;1.70;;
23060;SDS011;11698;47.690;9.132;2023-04-25T00:36:59;2.15;;;1.50;;
23060;SDS011;11698;47.690;9.132;2023-04-25T00:39:27;3.45;;;1.60;;
23060;SDS011;11698;47.690;9.132;2023-04-25T00:41:53;2.58;;;1.50;;
23060;SDS011;11698;47.690;9.132;2023-04-25T00:44:20;4.30;;;1.55;;
23060;SDS011;11698;47.690;9.132;2023-04-25T00:46:47;1.55;;;1.40;;
23060;SDS011;11698;47.690;9.132;2023-04-25T00:49:14;2.10;;;1.48;;
23060;SDS011;11698;47.690;9.132;2023-04-25T00:51:41;2.25;;;1.40;;
23060;SDS011;11698;47.690;9.132;2023-04-25T00:54:09;5.32;;;1.23;;
23060;SDS011;11698;47.690;9.132;2023-04-25T00:56:35;1.53;;;1.40;;
23060;SDS011;11698;47.690;9.132;2023-04-25T00:59:01;2.00;;;1.52;;
23060;SDS011;11698;47.690;9.132;2023-04-25T01:01:27;2.60;;;1.23;;
23060;SDS011;11698;47.690;9.132;2023-04-25T01:03:53;2.10;;;1.30;;
23060;SDS011;11698;47.690;9.132;2023-04-25T01:06:19;2.33;;;1.20;;
23060;SDS011;11698;47.690;9.132;2023-04-25T01:08:47;2.35;;;1.17;;
23060;SDS011;11698;47.690;9.132;2023-04-25T01:11:13;2.92;;;1.30;;
23060;SDS011;11698;47.690;9.132;2023-04-25T01:13:39;2.08;;;1.25;;
23060;SDS011;11698;47.690;9.132;2023-04-25T01:16:05;2.08;;;1.30;;
23060;SDS011;11698;47.690;9.132;2023-04-25T01:18:31;2.72;;;1.15;;
23060;SDS011;11698;47.690;9.132;2023-04-25T01:21:05;1.92;;;1.20;;
23060;SDS011;11698;47.690;9.132;2023-04-25T01:23:32;3.13;;;1.13;;
23060;SDS011;11698;47.690;9.132;2023-04-25T01:25:58;2.90;;;1.20;;
23060;SDS011;11698;47.690;9.132;2023-04-25T01:28:25;2.88;;;1.23;;
23060;SDS011;11698;47.690;9.132;2023-04-25T01:30:51;1.35;;;0.93;;
23060;SDS011;11698;47.690;9.132;2023-04-25T01:33:17;2.25;;;1.30;;
23060;SDS011;11698;47.690;9.132;2023-04-25T01:35:44;2.45;;;1.20;;
23060;SDS011;11698;47.690;9.132;2023-04-25T01:38:12;2.95;;;1.38;;
23060;SDS011;11698;47.690;9.132;2023-04-25T01:40:38;2.23;;;1.50;;
23060;SDS011;11698;47.690;9.132;2023-04-25T01:43:05;4.38;;;1.55;;
23060;SDS011;11698;47.690;9.132;2023-04-25T01:45:33;2.70;;;1.30;;
23060;SDS011;11698;47.690;9.132;2023-04-25T01:48:01;3.08;;;1.40;;
23060;SDS011;11698;47.690;9.132;2023-04-25T01:50:27;1.88;;;1.52;;
23060;SDS011;11698;47.690;9.132;2023-04-25T01:52:54;2.35;;;1.40;;
23060;SDS011;11698;47.690;9.132;2023-04-25T01:55:20;2.05;;;1.35;;
23060;SDS011;11698;47.690;9.132;2023-04-25T01:57:46;2.60;;;1.60;;
23060;SDS011;11698;47.690;9.132;2023-04-25T02:00:12;2.22;;;1.40;;
23060;SDS011;11698;47.690;9.132;2023-04-25T02:02:38;2.53;;;1.15;;
23060;SDS011;11698;47.690;9.132;2023-04-25T02:05:05;3.30;;;1.48;;
23060;SDS011;11698;47.690;9.132;2023-04-25T02:07:31;4.20;;;1.40;;
23060;SDS011;11698;47.690;9.132;2023-04-25T02:09:57;3.00;;;1.50;;
23060;SDS011;11698;47.690;9.132;2023-04-25T02:12:23;1.63;;;1.20;;
23060;SDS011;11698;47.690;9.132;2023-04-25T02:14:51;2.83;;;1.52;;
23060;SDS011;11698;47.690;9.132;2023-04-25T02:17:17;4.13;;;1.70;;
23060;SDS011;11698;47.690;9.132;2023-04-25T02:19:43;2.42;;;1.67;;
23060;SDS011;11698;47.690;9.132;2023-04-25T02:22:09;3.13;;;1.70;;
23060;SDS011;11698;47.690;9.132;2023-04-25T02:24:36;3.63;;;1.67;;
23060;SDS011;11698;47.690;9.132;2023-04-25T02:27:02;2.10;;;1.70;;
23060;SDS011;11698;47.690;9.132;2023-04-25T02:29:28;3.38;;;1.58;;
23060;SDS011;11698;47.690;9.132;2023-04-25T02:31:54;2.40;;;1.60;;
23060;SDS011;11698;47.690;9.132;2023-04-25T02:34:20;2.78;;;1.60;;
23060;SDS011;11698;47.690;9.132;2023-04-25T02:36:47;2.05;;;1.60;;
23060;SDS011;11698;47.690;9.132;2023-04-25T02:39:15;3.17;;;2.10;;
23060;SDS011;11698;47.690;9.132;2023-04-25T02:41:41;3.73;;;1.87;;
23060;SDS011;11698;47.690;9.132;2023-04-25T02:44:07;2.47;;;1.50;;
23060;SDS011;11698;47.690;9.132;2023-04-25T02:46:33;4.07;;;1.60;;
23060;SDS011;11698;47.690;9.132;2023-04-25T02:48:59;2.80;;;1.80;;
23060;SDS011;11698;47.690;9.132;2023-04-25T02:51:25;2.83;;;1.95;;
23060;SDS011;11698;47.690;9.132;2023-04-25T02:53:51;4.43;;;2.30;;
23060;SDS011;11698;47.690;9.132;2023-04-25T02:56:17;2.65;;;1.60;;
23060;SDS011;11698;47.690;9.132;2023-04-25T02:58:43;2.78;;;1.58;;
23060;SDS011;11698;47.690;9.132;2023-04-25T03:01:10;3.20;;;1.90;;
23060;SDS011;11698;47.690;9.132;2023-04-25T03:03:36;2.05;;;1.85;;
23060;SDS011;11698;47.690;9.132;2023-04-25T03:06:02;3.03;;;1.65;;
23060;SDS011;11698;47.690;9.132;2023-04-25T03:08:28;3.90;;;1.90;;
23060;SDS011;11698;47.690;9.132;2023-04-25T03:10:57;3.13;;;1.90;;
23060;SDS011;11698;47.690;9.132;2023-04-25T03:13:23;2.17;;;1.80;;
23060;SDS011;11698;47.690;9.132;2023-04-25T03:15:49;3.22;;;1.90;;
23060;SDS011;11698;47.690;9.132;2023-04-25T03:18:15;2.90;;;2.20;;
23060;SDS011;11698;47.690;9.132;2023-04-25T03:20:41;3.70;;;1.80;;
23060;SDS011;11698;47.690;9.132;2023-04-25T03:23:07;2.38;;;1.60;;
23060;SDS011;11698;47.690;9.132;2023-04-25T03:25:33;2.70;;;1.65;;
23060;SDS011;11698;47.690;9.132;2023-04-25T03:27:59;2.88;;;1.80;;
23060;SDS011;11698;47.690;9.132;2023-04-25T03:30:25;3.10;;;2.05;;
23060;SDS011;11698;47.690;9.132;2023-04-25T03:32:51;2.73;;;1.70;;
23060;SDS011;11698;47.690;9.132;2023-04-25T03:35:17;3.13;;;1.90;;
23060;SDS011;11698;47.690;9.132;2023-04-25T03:37:43;2.03;;;1.50;;
23060;SDS011;11698;47.690;9.132;2023-04-25T03:40:10;4.35;;;1.70;;
23060;SDS011;11698;47.690;9.132;2023-04-25T03:42:36;3.22;;;1.92;;
23060;SDS011;11698;47.690;9.132;2023-04-25T03:45:02;2.70;;;1.92;;
23060;SDS011;11698;47.690;9.132;2023-04-25T03:47:29;3.63;;;2.20;;
23060;SDS011;11698;47.690;9.132;2023-04-25T03:49:55;2.53;;;2.00;;
23060;SDS011;11698;47.690;9.132;2023-04-25T03:52:21;2.73;;;1.80;;
23060;SDS011;11698;47.690;9.132;2023-04-25T03:54:47;4.00;;;1.60;;
23060;SDS011;11698;47.690;9.132;2023-04-25T03:57:13;3.30;;;1.70;;
23060;SDS011;11698;47.690;9.132;2023-04-25T03:59:39;3.35;;;2.00;;
23060;SDS011;11698;47.690;9.132;2023-04-25T04:02:05;2.67;;;1.77;;
23060;SDS011;11698;47.690;9.132;2023-04-25T04:04:31;2.75;;;1.80;;
23060;SDS011;11698;47.690;9.132;2023-04-25T04:06:57;3.95;;;1.70;;
23060;SDS011;11698;47.690;9.132;2023-04-25T04:09:23;3.17;;;1.95;;
23060;SDS011;11698;47.690;9.132;2023-04-25T04:11:50;3.25;;;2.10;;
23060;SDS011;11698;47.690;9.132;2023-04-25T04:14:16;3.03;;;2.10;;
23060;SDS011;11698;47.690;9.132;2023-04-25T04:16:42;4.00;;;2.38;;
23060;SDS011;11698;47.690;9.132;2023-04-25T04:19:08;5.63;;;3.65;;
23060;SDS011;11698;47.690;9.132;2023-04-25T04:21:34;8.35;;;4.50;;
23060;SDS011;11698;47.690;9.132;2023-04-25T04:24:00;10.23;;;6.55;;
23060;SDS011;11698;47.690;9.132;2023-04-25T04:26:26;6.33;;;5.27;;
23060;SDS011;11698;47.690;9.132;2023-04-25T04:28:52;7.57;;;4.47;;
23060;SDS011;11698;47.690;9.132;2023-04-25T04:31:22;6.03;;;4.30;;
23060;SDS011;11698;47.690;9.132;2023-04-25T04:33:48;5.22;;;3.40;;
23060;SDS011;11698;47.690;9.132;2023-04-25T04:36:15;4.70;;;3.47;;
23060;SDS011;11698;47.690;9.132;2023-04-25T04:38:44;3.30;;;2.35;;
23060;SDS011;11698;47.690;9.132;2023-04-25T04:41:11;4.20;;;2.30;;
23060;SDS011;11698;47.690;9.132;2023-04-25T04:43:37;4.68;;;2.38;;
23060;SDS011;11698;47.690;9.132;2023-04-25T04:46:04;1.98;;;1.67;;
23060;SDS011;11698;47.690;9.132;2023-04-25T04:48:33;5.15;;;2.42;;
23060;SDS011;11698;47.690;9.132;2023-04-25T04:51:00;2.87;;;2.10;;
23060;SDS011;11698;47.690;9.132;2023-04-25T04:53:26;3.13;;;2.10;;
23060;SDS011;11698;47.690;9.132;2023-04-25T04:55:52;2.17;;;1.92;;
23060;SDS011;11698;47.690;9.132;2023-04-25T04:58:18;2.55;;;1.85;;
23060;SDS011;11698;47.690;9.132;2023-04-25T05:00:44;6.18;;;2.10;;
23060;SDS011;11698;47.690;9.132;2023-04-25T05:03:11;3.63;;;2.25;;
23060;SDS011;11698;47.690;9.132;2023-04-25T05:05:38;3.00;;;2.17;;
23060;SDS011;11698;47.690;9.132;2023-04-25T05:08:05;2.42;;;2.10;;
23060;SDS011;11698;47.690;9.132;2023-04-25T05:10:31;3.40;;;1.90;;
23060;SDS011;11698;47.690;9.132;2023-04-25T05:12:57;5.07;;;2.22;;
23060;SDS011;11698;47.690;9.132;2023-04-25T05:15:23;3.08;;;2.03;;
23060;SDS011;11698;47.690;9.132;2023-04-25T05:17:49;3.55;;;1.92;;
23060;SDS011;11698;47.690;9.132;2023-04-25T05:20:15;5.10;;;1.98;;
23060;SDS011;11698;47.690;9.132;2023-04-25T05:22:43;2.93;;;2.20;;
23060;SDS011;11698;47.690;9.132;2023-04-25T05:25:09;5.00;;;2.30;;
23060;SDS011;11698;47.690;9.132;2023-04-25T05:27:35;3.58;;;1.98;;
23060;SDS011;11698;47.690;9.132;2023-04-25T05:30:01;2.47;;;2.03;;
23060;SDS011;11698;47.690;9.132;2023-04-25T05:32:28;6.53;;;2.20;;
23060;SDS011;11698;47.690;9.132;2023-04-25T05:34:54;2.80;;;1.85;;
23060;SDS011;11698;47.690;9.132;2023-04-25T05:37:20;2.80;;;2.00;;
23060;SDS011;11698;47.690;9.132;2023-04-25T05:39:45;4.07;;;1.97;;
23060;SDS011;11698;47.690;9.132;2023-04-25T05:42:11;2.08;;;1.90;;
23060;SDS011;11698;47.690;9.132;2023-04-25T05:44:37;1.92;;;1.60;;
23060;SDS011;11698;47.690;9.132;2023-04-25T05:47:03;6.15;;;2.17;;
23060;SDS011;11698;47.690;9.132;2023-04-25T05:49:30;3.47;;;2.10;;
23060;SDS011;11698;47.690;9.132;2023-04-25T05:51:56;3.10;;;1.95;;
23060;SDS011;11698;47.690;9.132;2023-04-25T05:54:22;3.22;;;1.80;;
23060;SDS011;11698;47.690;9.132;2023-04-25T05:56:48;2.20;;;1.80;;
23060;SDS011;11698;47.690;9.132;2023-04-25T05:59:14;3.45;;;1.70;;
23060;SDS011;11698;47.690;9.132;2023-04-25T06:01:41;2.03;;;1.73;;
23060;SDS011;11698;47.690;9.132;2023-04-25T06:04:07;4.07;;;1.90;;
23060;SDS011;11698;47.690;9.132;2023-04-25T06:06:33;3.33;;;1.63;;
23060;SDS011;11698;47.690;9.132;2023-04-25T06:08:59;2.83;;;1.65;;
23060;SDS011;11698;47.690;9.132;2023-04-25T06:11:25;2.63;;;1.40;;
23060;SDS011;11698;47.690;9.132;2023-04-25T06:13:51;3.22;;;2.00;;
23060;SDS011;11698;47.690;9.132;2023-04-25T06:16:17;3.60;;;1.63;;
23060;SDS011;11698;47.690;9.132;2023-04-25T06:18:43;3.08;;;1.55;;
23060;SDS011;11698;47.690;9.132;2023-04-25T06:21:09;3.25;;;1.52;;
23060;SDS011;11698;47.690;9.132;2023-04-25T06:23:35;4.30;;;1.85;;
23060;SDS011;11698;47.690;9.132;2023-04-25T06:26:01;3.17;;;1.65;;
23060;SDS011;11698;47.690;9.132;2023-04-25T06:28:28;4.95;;;1.63;;
23060;SDS011;11698;47.690;9.132;2023-04-25T06:30:54;2.95;;;1.50;;
23060;SDS011;11698;47.690;9.132;2023-04-25T06:33:20;3.08;;;1.67;;
23060;SDS011;11698;47.690;9.132;2023-04-25T06:35:47;5.15;;;2.00;;
23060;SDS011;11698;47.690;9.132;2023-04-25T06:38:13;3.40;;;1.80;;
23060;SDS011;11698;47.690;9.132;2023-04-25T06:40:39;3.40;;;1.60;;
23060;SDS011;11698;47.690;9.132;2023-04-25T06:43:05;2.75;;;1.80;;
23060;SDS011;11698;47.690;9.132;2023-04-25T06:45:31;4.97;;;2.00;;
23060;SDS011;11698;47.690;9.132;2023-04-25T06:47:57;3.97;;;2.10;;
23060;SDS011;11698;47.690;9.132;2023-04-25T06:50:23;3.30;;;2.00;;
23060;SDS011;11698;47.690;9.132;2023-04-25T06:52:49;4.10;;;1.85;;
23060;SDS011;11698;47.690;9.132;2023-04-25T06:55:15;4.13;;;2.20;;
23060;SDS011;11698;47.690;9.132;2023-04-25T06:57:41;3.17;;;1.98;;
23060;SDS011;11698;47.690;9.132;2023-04-25T07:00:07;6.95;;;2.20;;
23060;SDS011;11698;47.690;9.132;2023-04-25T07:02:34;4.82;;;2.05;;
23060;SDS011;11698;47.690;9.132;2023-04-25T07:05:01;4.60;;;2.10;;
23060;SDS011;11698;47.690;9.132;2023-04-25T07:07:29;4.00;;;1.95;;
23060;SDS011;11698;47.690;9.132;2023-04-25T07:09:55;4.65;;;2.00;;
23060;SDS011;11698;47.690;9.132;2023-04-25T07:12:21;3.83;;;1.75;;
23060;SDS011;11698;47.690;9.132;2023-04-25T07:14:47;4.03;;;1.70;;
23060;SDS011;11698;47.690;9.132;2023-04-25T07:17:16;6.00;;;2.10;;
23060;SDS011;11698;47.690;9.132;2023-04-25T07:19:42;5.72;;;2.13;;
23060;SDS011;11698;47.690;9.132;2023-04-25T07:22:08;4.05;;;2.05;;
23060;SDS011;11698;47.690;9.132;2023-04-25T07:24:34;4.68;;;1.90;;
23060;SDS011;11698;47.690;9.132;2023-04-25T07:27:00;2.83;;;1.40;;
23060;SDS011;11698;47.690;9.132;2023-04-25T07:29:27;4.25;;;1.92;;
23060;SDS011;11698;47.690;9.132;2023-04-25T07:31:54;2.53;;;1.52;;
23060;SDS011;11698;47.690;9.132;2023-04-25T07:34:20;5.75;;;1.33;;
23060;SDS011;11698;47.690;9.132;2023-04-25T07:36:47;3.60;;;1.60;;
23060;SDS011;11698;47.690;9.132;2023-04-25T07:39:13;2.90;;;1.40;;
23060;SDS011;11698;47.690;9.132;2023-04-25T07:41:38;3.60;;;2.17;;
23060;SDS011;11698;47.690;9.132;2023-04-25T07:44:04;3.67;;;1.58;;
23060;SDS011;11698;47.690;9.132;2023-04-25T07:46:31;2.92;;;1.60;;
23060;SDS011;11698;47.690;9.132;2023-04-25T07:48:57;3.15;;;1.63;;
23060;SDS011;11698;47.690;9.132;2023-04-25T07:51:23;3.53;;;1.67;;
23060;SDS011;11698;47.690;9.132;2023-04-25T07:53:49;2.33;;;1.37;;
23060;SDS011;11698;47.690;9.132;2023-04-25T07:56:15;2.70;;;1.60;;
23060;SDS011;11698;47.690;9.132;2023-04-25T07:58:41;2.63;;;1.30;;
23060;SDS011;11698;47.690;9.132;2023-04-25T08:01:07;2.73;;;1.40;;
23060;SDS011;11698;47.690;9.132;2023-04-25T08:03:33;2.65;;;1.10;;
23060;SDS011;11698;47.690;9.132;2023-04-25T08:05:59;2.63;;;1.30;;
23060;SDS011;11698;47.690;9.132;2023-04-25T08:08:25;2.92;;;1.38;;
23060;SDS011;11698;47.690;9.132;2023-04-25T08:10:51;3.15;;;1.90;;
23060;SDS011;11698;47.690;9.132;2023-04-25T08:13:17;2.33;;;1.20;;
23060;SDS011;11698;47.690;9.132;2023-04-25T08:15:43;2.05;;;1.70;;
23060;SDS011;11698;47.690;9.132;2023-04-25T08:18:09;3.50;;;1.67;;
23060;SDS011;11698;47.690;9.132;2023-04-25T08:20:35;0.68;;;0.52;;
23060;SDS011;11698;47.690;9.132;2023-04-25T08:23:01;3.30;;;1.30;;
23060;SDS011;11698;47.690;9.132;2023-04-25T08:25:27;2.03;;;1.02;;
23060;SDS011;11698;47.690;9.132;2023-04-25T08:27:53;1.20;;;1.10;;
23060;SDS011;11698;47.690;9.132;2023-04-25T08:30:19;4.20;;;1.40;;
23060;SDS011;11698;47.690;9.132;2023-04-25T08:32:46;2.17;;;1.00;;
23060;SDS011;11698;47.690;9.132;2023-04-25T08:35:12;1.20;;;1.10;;
23060;SDS011;11698;47.690;9.132;2023-04-25T08:37:38;2.63;;;1.30;;
23060;SDS011;11698;47.690;9.132;2023-04-25T08:40:04;2.13;;;1.60;;
23060;SDS011;11698;47.690;9.132;2023-04-25T08:42:33;2.75;;;1.05;;
23060;SDS011;11698;47.690;9.132;2023-04-25T08:45:02;2.00;;;1.13;;
23060;SDS011;11698;47.690;9.132;2023-04-25T08:47:28;1.40;;;1.30;;
23060;SDS011;11698;47.690;9.132;2023-04-25T08:49:55;1.05;;;0.63;;
23060;SDS011;11698;47.690;9.132;2023-04-25T08:52:24;1.80;;;1.30;;
23060;SDS011;11698;47.690;9.132;2023-04-25T08:54:53;3.60;;;1.27;;
23060;SDS011;11698;47.690;9.132;2023-04-25T08:57:20;1.58;;;1.20;;
23060;SDS011;11698;47.690;9.132;2023-04-25T08:59:46;2.47;;;1.63;;
23060;SDS011;11698;47.690;9.132;2023-04-25T09:02:13;1.33;;;1.23;;
23060;SDS011;11698;47.690;9.132;2023-04-25T09:04:42;1.52;;;1.08;;
23060;SDS011;11698;47.690;9.132;2023-04-25T09:07:09;1.20;;;0.93;;
23060;SDS011;11698;47.690;9.132;2023-04-25T09:09:35;2.00;;;1.30;;
23060;SDS011;11698;47.690;9.132;2023-04-25T09:12:01;1.27;;;1.13;;
23060;SDS011;11698;47.690;9.132;2023-04-25T09:14:27;1.73;;;0.82;;
23060;SDS011;11698;47.690;9.132;2023-04-25T09:16:57;1.17;;;1.05;;
23060;SDS011;11698;47.690;9.132;2023-04-25T09:19:30;2.10;;;1.10;;
23060;SDS011;11698;47.690;9.132;2023-04-25T09:21:57;1.35;;;0.80;;
23060;SDS011;11698;47.690;9.132;2023-04-25T09:24:33;2.03;;;1.17;;
23060;SDS011;11698;47.690;9.132;2023-04-25T09:27:02;2.80;;;1.20;;
23060;SDS011;11698;47.690;9.132;2023-04-25T09:29:29;1.60;;;1.10;;
23060;SDS011;11698;47.690;9.132;2023-04-25T09:34:41;1.02;;;1.00;;
23060;SDS011;11698;47.690;9.132;2023-04-25T09:37:11;1.55;;;0.98;;
23060;SDS011;11698;47.690;9.132;2023-04-25T09:39:38;0.77;;;0.77;;
23060;SDS011;11698;47.690;9.132;2023-04-25T09:42:04;0.93;;;0.90;;
23060;SDS011;11698;47.690;9.132;2023-04-25T09:44:31;1.08;;;0.90;;
23060;SDS011;11698;47.690;9.132;2023-04-25T09:46:57;1.58;;;1.13;;
23060;SDS011;11698;47.690;9.132;2023-04-25T09:49:24;0.90;;;0.80;;
23060;SDS011;11698;47.690;9.132;2023-04-25T09:51:56;1.00;;;0.73;;
23060;SDS011;11698;47.690;9.132;2023-04-25T09:54:26;0.82;;;0.80;;
23060;SDS011;11698;47.690;9.132;2023-04-25T09:56:52;0.67;;;0.50;;
23060;SDS011;11698;47.690;9.132;2023-04-25T09:59:21;0.80;;;0.60;;
23060;SDS011;11698;47.690;9.132;2023-04-25T10:01:48;1.33;;;0.82;;
23060;SDS011;11698;47.690;9.132;2023-04-25T10:04:19;0.70;;;0.70;;
23060;SDS011;11698;47.690;9.132;2023-04-25T10:06:46;1.33;;;0.80;;
23060;SDS011;11698;47.690;9.132;2023-04-25T10:09:14;0.52;;;0.50;;
23060;SDS011;11698;47.690;9.132;2023-04-25T10:11:40;1.25;;;0.70;;
23060;SDS011;11698;47.690;9.132;2023-04-25T10:14:06;0.77;;;0.68;;
23060;SDS011;11698;47.690;9.132;2023-04-25T10:16:32;1.10;;;0.52;;
23060;SDS011;11698;47.690;9.132;2023-04-25T10:18:59;1.17;;;0.88;;
23060;SDS011;11698;47.690;9.132;2023-04-25T10:21:25;0.75;;;0.65;;
23060;SDS011;11698;47.690;9.132;2023-04-25T10:23:51;0.93;;;0.65;;
23060;SDS011;11698;47.690;9.132;2023-04-25T10:26:18;0.77;;;0.50;;
23060;SDS011;11698;47.690;9.132;2023-04-25T10:29:00;1.10;;;0.60;;
23060;SDS011;11698;47.690;9.132;2023-04-25T10:31:26;0.82;;;0.60;;
23060;SDS011;11698;47.690;9.132;2023-04-25T10:33:53;1.05;;;0.60;;
23060;SDS011;11698;47.690;9.132;2023-04-25T10:36:20;0.60;;;0.52;;
23060;SDS011;11698;47.690;9.132;2023-04-25T10:38:47;2.10;;;0.60;;
23060;SDS011;11698;47.690;9.132;2023-04-25T10:41:13;1.00;;;0.40;;
23060;SDS011;11698;47.690;9.132;2023-04-25T10:43:41;0.37;;;0.37;;
23060;SDS011;11698;47.690;9.132;2023-04-25T10:48:43;0.47;;;0.30;;
23060;SDS011;11698;47.690;9.132;2023-04-25T10:51:15;0.60;;;0.40;;
23060;SDS011;11698;47.690;9.132;2023-04-25T10:53:41;0.40;;;0.40;;
23060;SDS011;11698;47.690;9.132;2023-04-25T10:56:18;1.30;;;0.40;;
23060;SDS011;11698;47.690;9.132;2023-04-25T10:58:45;0.40;;;0.10;;
23060;SDS011;11698;47.690;9.132;2023-04-25T11:01:12;0.57;;;0.47;;
23060;SDS011;11698;47.690;9.132;2023-04-25T11:03:42;0.85;;;0.50;;
23060;SDS011;11698;47.690;9.132;2023-04-25T11:06:12;1.10;;;0.60;;
23060;SDS011;11698;47.690;9.132;2023-04-25T11:08:50;3.85;;;0.70;;
23060;SDS011;11698;47.690;9.132;2023-04-25T11:11:17;0.43;;;0.40;;
23060;SDS011;11698;47.690;9.132;2023-04-25T11:13:43;0.55;;;0.30;;
23060;SDS011;11698;47.690;9.132;2023-04-25T11:16:10;0.70;;;0.38;;
23060;SDS011;11698;47.690;9.132;2023-04-25T11:18:36;0.40;;;0.20;;
23060;SDS011;11698;47.690;9.132;2023-04-25T11:21:05;0.30;;;0.23;;
23060;SDS011;11698;47.690;9.132;2023-04-25T11:23:31;0.60;;;0.22;;
23060;SDS011;11698;47.690;9.132;2023-04-25T11:25:57;0.93;;;0.40;;
23060;SDS011;11698;47.690;9.132;2023-04-25T11:28:26;0.55;;;0.32;;
23060;SDS011;11698;47.690;9.132;2023-04-25T11:30:52;0.30;;;0.30;;
23060;SDS011;11698;47.690;9.132;2023-04-25T11:33:22;0.10;;;0.10;;
23060;SDS011;11698;47.690;9.132;2023-04-25T11:35:48;0.28;;;0.20;;
23060;SDS011;11698;47.690;9.132;2023-04-25T11:38:15;0.30;;;0.30;;
23060;SDS011;11698;47.690;9.132;2023-04-25T11:40:41;0.13;;;0.13;;
23060;SDS011;11698;47.690;9.132;2023-04-25T11:43:07;0.00;;;0.00;;
23060;SDS011;11698;47.690;9.132;2023-04-25T11:45:36;0.25;;;0.10;;
23060;SDS011;11698;47.690;9.132;2023-04-25T11:48:02;0.50;;;0.20;;
23060;SDS011;11698;47.690;9.132;2023-04-25T11:50:28;0.20;;;0.20;;
23060;SDS011;11698;47.690;9.132;2023-04-25T11:52:55;0.88;;;0.30;;
23060;SDS011;11698;47.690;9.132;2023-04-25T11:55:21;0.20;;;0.20;;
23060;SDS011;11698;47.690;9.132;2023-04-25T11:57:48;0.20;;;0.10;;
23060;SDS011;11698;47.690;9.132;2023-04-25T12:00:20;0.08;;;0.08;;
23060;SDS011;11698;47.690;9.132;2023-04-25T12:02:50;1.08;;;0.30;;
23060;SDS011;11698;47.690;9.132;2023-04-25T12:05:16;0.20;;;0.20;;
23060;SDS011;11698;47.690;9.132;2023-04-25T12:07:43;0.10;;;0.10;;
23060;SDS011;11698;47.690;9.132;2023-04-25T12:10:10;0.32;;;0.20;;
23060;SDS011;11698;47.690;9.132;2023-04-25T12:12:36;0.70;;;0.20;;
23060;SDS011;11698;47.690;9.132;2023-04-25T12:15:18;0.60;;;0.10;;
23060;SDS011;11698;47.690;9.132;2023-04-25T12:17:49;0.10;;;0.10;;
23060;SDS011;11698;47.690;9.132;2023-04-25T12:20:16;0.10;;;0.10;;
23060;SDS011;11698;47.690;9.132;2023-04-25T12:22:42;0.30;;;0.10;;
23060;SDS011;11698;47.690;9.132;2023-04-25T12:25:12;0.30;;;0.10;;
23060;SDS011;11698;47.690;9.132;2023-04-25T12:27:38;0.13;;;0.10;;
23060;SDS011;11698;47.690;9.132;2023-04-25T12:30:07;0.37;;;0.10;;
23060;SDS011;11698;47.690;9.132;2023-04-25T12:32:33;0.60;;;0.10;;
23060;SDS011;11698;47.690;9.132;2023-04-25T12:34:59;0.70;;;0.20;;
23060;SDS011;11698;47.690;9.132;2023-04-25T12:37:25;0.10;;;0.00;;
23060;SDS011;11698;47.690;9.132;2023-04-25T12:39:51;0.03;;;0.03;;
23060;SDS011;11698;47.690;9.132;2023-04-25T12:42:17;0.10;;;0.10;;
23060;SDS011;11698;47.690;9.132;2023-04-25T12:44:43;0.10;;;0.00;;
23060;SDS011;11698;47.690;9.132;2023-04-25T12:47:09;0.40;;;0.10;;
23060;SDS011;11698;47.690;9.132;2023-04-25T12:49:35;0.75;;;0.08;;
23060;SDS011;11698;47.690;9.132;2023-04-25T12:52:01;0.20;;;0.00;;
23060;SDS011;11698;47.690;9.132;2023-04-25T12:54:27;0.10;;;0.10;;
23060;SDS011;11698;47.690;9.132;2023-04-25T12:56:53;0.60;;;0.20;;
23060;SDS011;11698;47.690;9.132;2023-04-25T12:59:20;0.17;;;0.17;;
23060;SDS011;11698;47.690;9.132;2023-04-25T13:01:46;0.20;;;0.20;;
23060;SDS011;11698;47.690;9.132;2023-04-25T13:04:12;0.47;;;0.40;;
23060;SDS011;11698;47.690;9.132;2023-04-25T13:06:38;0.70;;;0.13;;
23060;SDS011;11698;47.690;9.132;2023-04-25T13:09:04;0.17;;;0.17;;
23060;SDS011;11698;47.690;9.132;2023-04-25T13:11:31;0.20;;;0.20;;
23060;SDS011;11698;47.690;9.132;2023-04-25T13:13:57;0.63;;;0.23;;
23060;SDS011;11698;47.690;9.132;2023-04-25T13:16:23;0.35;;;0.30;;
23060;SDS011;11698;47.690;9.132;2023-04-25T13:18:49;1.00;;;0.30;;
23060;SDS011;11698;47.690;9.132;2023-04-25T13:21:16;0.43;;;0.20;;
23060;SDS011;11698;47.690;9.132;2023-04-25T13:23:42;0.52;;;0.30;;
23060;SDS011;11698;47.690;9.132;2023-04-25T13:26:09;0.50;;;0.30;;
23060;SDS011;11698;47.690;9.132;2023-04-25T13:28:35;0.52;;;0.30;;
23060;SDS011;11698;47.690;9.132;2023-04-25T13:31:01;0.50;;;0.30;;
23060;SDS011;11698;47.690;9.132;2023-04-25T13:33:27;0.50;;;0.32;;
23060;SDS011;11698;47.690;9.132;2023-04-25T13:35:53;0.30;;;0.10;;
23060;SDS011;11698;47.690;9.132;2023-04-25T13:38:21;0.20;;;0.20;;
23060;SDS011;11698;47.690;9.132;2023-04-25T13:40:47;0.68;;;0.30;;
23060;SDS011;11698;47.690;9.132;2023-04-25T13:43:13;0.60;;;0.50;;
23060;SDS011;11698;47.690;9.132;2023-04-25T13:45:39;0.63;;;0.40;;
23060;SDS011;11698;47.690;9.132;2023-04-25T13:48:06;0.40;;;0.30;;
23060;SDS011;11698;47.690;9.132;2023-04-25T13:50:32;1.10;;;0.40;;
23060;SDS011;11698;47.690;9.132;2023-04-25T13:52:58;0.30;;;0.30;;
23060;SDS011;11698;47.690;9.132;2023-04-25T13:55:24;0.20;;;0.20;;
23060;SDS011;11698;47.690;9.132;2023-04-25T13:57:50;0.37;;;0.30;;
23060;SDS011;11698;47.690;9.132;2023-04-25T14:00:16;0.38;;;0.30;;
23060;SDS011;11698;47.690;9.132;2023-04-25T14:02:42;0.50;;;0.30;;
23060;SDS011;11698;47.690;9.132;2023-04-25T14:05:08;0.30;;;0.30;;
23060;SDS011;11698;47.690;9.132;2023-04-25T14:07:34;0.28;;;0.28;;
23060;SDS011;11698;47.690;9.132;2023-04-25T14:10:01;0.60;;;0.20;;
23060;SDS011;11698;47.690;9.132;2023-04-25T14:12:27;0.57;;;0.30;;
23060;SDS011;11698;47.690;9.132;2023-04-25T14:14:53;0.30;;;0.30;;
23060;SDS011;11698;47.690;9.132;2023-04-25T14:17:19;0.32;;;0.32;;
23060;SDS011;11698;47.690;9.132;2023-04-25T14:19:45;1.50;;;0.40;;
23060;SDS011;11698;47.690;9.132;2023-04-25T14:22:13;6.28;;;0.50;;
23060;SDS011;11698;47.690;9.132;2023-04-25T14:24:40;0.75;;;0.45;;
23060;SDS011;11698;47.690;9.132;2023-04-25T14:27:06;0.77;;;0.68;;
23060;SDS011;11698;47.690;9.132;2023-04-25T14:29:32;1.00;;;0.50;;
23060;SDS011;11698;47.690;9.132;2023-04-25T14:31:58;1.50;;;0.60;;
23060;SDS011;11698;47.690;9.132;2023-04-25T14:34:24;0.90;;;0.60;;
23060;SDS011;11698;47.690;9.132;2023-04-25T14:36:51;1.38;;;0.77;;
23060;SDS011;11698;47.690;9.132;2023-04-25T14:39:17;0.50;;;0.50;;
23060;SDS011;11698;47.690;9.132;2023-04-25T14:41:43;1.17;;;0.50;;
23060;SDS011;11698;47.690;9.132;2023-04-25T14:44:09;0.82;;;0.60;;
23060;SDS011;11698;47.690;9.132;2023-04-25T14:46:36;0.80;;;0.60;;
23060;SDS011;11698;47.690;9.132;2023-04-25T14:49:02;1.00;;;0.55;;